sensor_id;sensor_type;location;lat;lon;timestamp;temperature;humidity
42019;DHT22;27703;51.980;5.848;2023-04-24T00:00:24;10.10;99.90
42019;DHT22;27703;51.980;5.848;2023-04-24T00:02:50;10.10;99.90
42019;DHT22;27703;51.980;5.848;2023-04-24T00:05:16;10.10;99.90
42019;DHT22;27703;51.980;5.848;2023-04-24T00:07:43;10.10;99.90
42019;DHT22;27703;51.980;5.848;2023-04-24T00:10:09;10.10;99.90
42019;DHT22;27703;51.980;5.848;2023-04-24T00:12:35;10.20;99.90
42019;DHT22;27703;51.980;5.848;2023-04-24T00:15:00;10.10;99.90
42019;DHT22;27703;51.980;5.848;2023-04-24T00:17:26;10.10;99.90
42019;DHT22;27703;51.980;5.848;2023-04-24T00:19:52;10.10;99.90
42019;DHT22;27703;51.980;5.848;2023-04-24T00:22:27;10.10;99.90
42019;DHT22;27703;51.980;5.848;2023-04-24T00:24:53;10.10;99.90
42019;DHT22;27703;51.980;5.848;2023-04-24T00:27:18;10.10;99.90
42019;DHT22;27703;51.980;5.848;2023-04-24T00:29:44;10.10;99.90
42019;DHT22;27703;51.980;5.848;2023-04-24T00:32:10;10.10;99.90
42019;DHT22;27703;51.980;5.848;2023-04-24T00:34:36;10.10;99.90
42019;DHT22;27703;51.980;5.848;2023-04-24T00:37:01;10.10;99.90
42019;DHT22;27703;51.980;5.848;2023-04-24T00:39:27;10.00;99.90
42019;DHT22;27703;51.980;5.848;2023-04-24T00:41:53;10.00;99.90
42019;DHT22;27703;51.980;5.848;2023-04-24T00:44:19;10.00;99.90
42019;DHT22;27703;51.980;5.848;2023-04-24T00:46:45;10.00;99.90
42019;DHT22;27703;51.980;5.848;2023-04-24T00:49:12;10.00;99.90
42019;DHT22;27703;51.980;5.848;2023-04-24T00:51:38;10.00;99.90
42019;DHT22;27703;51.980;5.848;2023-04-24T00:54:05;10.00;99.90
42019;DHT22;27703;51.980;5.848;2023-04-24T00:56:31;10.00;99.90
42019;DHT22;27703;51.980;5.848;2023-04-24T00:58:57;10.00;99.90
42019;DHT22;27703;51.980;5.848;2023-04-24T01:01:23;10.00;99.90
42019;DHT22;27703;51.980;5.848;2023-04-24T01:03:50;10.00;99.90
42019;DHT22;27703;51.980;5.848;2023-04-24T01:06:16;10.00;99.90
42019;DHT22;27703;51.980;5.848;2023-04-24T01:08:43;9.90;99.90
42019;DHT22;27703;51.980;5.848;2023-04-24T01:11:10;9.90;99.90
42019;DHT22;27703;51.980;5.848;2023-04-24T01:13:36;10.00;99.90
42019;DHT22;27703;51.980;5.848;2023-04-24T01:16:02;10.00;99.90
42019;DHT22;27703;51.980;5.848;2023-04-24T01:18:28;10.00;99.90
42019;DHT22;27703;51.980;5.848;2023-04-24T01:20:57;10.00;99.90
42019;DHT22;27703;51.980;5.848;2023-04-24T01:23:23;10.00;99.90
42019;DHT22;27703;51.980;5.848;2023-04-24T01:25:49;10.00;99.90
42019;DHT22;27703;51.980;5.848;2023-04-24T01:28:16;10.00;99.90
42019;DHT22;27703;51.980;5.848;2023-04-24T01:30:42;10.00;99.90
42019;DHT22;27703;51.980;5.848;2023-04-24T01:33:07;10.00;99.90
42019;DHT22;27703;51.980;5.848;2023-04-24T01:35:33;10.00;99.90
42019;DHT22;27703;51.980;5.848;2023-04-24T01:37:59;9.90;99.90
42019;DHT22;27703;51.980;5.848;2023-04-24T01:40:25;9.90;99.90
42019;DHT22;27703;51.980;5.848;2023-04-24T01:42:51;9.90;99.90
42019;DHT22;27703;51.980;5.848;2023-04-24T01:45:16;9.90;99.90
42019;DHT22;27703;51.980;5.848;2023-04-24T01:47:42;9.90;99.90
42019;DHT22;27703;51.980;5.848;2023-04-24T01:50:09;9.80;99.90
42019;DHT22;27703;51.980;5.848;2023-04-24T01:52:35;9.80;99.90
42019;DHT22;27703;51.980;5.848;2023-04-24T01:55:04;9.80;99.90
42019;DHT22;27703;51.980;5.848;2023-04-24T01:57:31;9.90;99.90
42019;DHT22;27703;51.980;5.848;2023-04-24T01:59:57;9.90;99.90
42019;DHT22;27703;51.980;5.848;2023-04-24T02:02:23;9.90;99.90
42019;DHT22;27703;51.980;5.848;2023-04-24T02:04:56;9.90;99.90
42019;DHT22;27703;51.980;5.848;2023-04-24T02:07:22;9.90;99.90
42019;DHT22;27703;51.980;5.848;2023-04-24T02:09:48;9.90;99.90
42019;DHT22;27703;51.980;5.848;2023-04-24T02:12:14;10.00;99.90
42019;DHT22;27703;51.980;5.848;2023-04-24T02:14:40;10.00;99.90
42019;DHT22;27703;51.980;5.848;2023-04-24T02:17:07;10.00;99.90
42019;DHT22;27703;51.980;5.848;2023-04-24T02:19:33;10.00;99.90
42019;DHT22;27703;51.980;5.848;2023-04-24T02:21:58;10.00;99.90
42019;DHT22;27703;51.980;5.848;2023-04-24T02:24:24;10.00;99.90
42019;DHT22;27703;51.980;5.848;2023-04-24T02:26:49;10.00;99.90
42019;DHT22;27703;51.980;5.848;2023-04-24T02:29:15;10.00;99.90
42019;DHT22;27703;51.980;5.848;2023-04-24T02:31:41;10.00;99.90
42019;DHT22;27703;51.980;5.848;2023-04-24T02:34:06;10.00;99.90
42019;DHT22;27703;51.980;5.848;2023-04-24T02:36:32;10.00;99.90
42019;DHT22;27703;51.980;5.848;2023-04-24T02:38:57;10.00;99.90
42019;DHT22;27703;51.980;5.848;2023-04-24T02:41:23;10.00;99.90
42019;DHT22;27703;51.980;5.848;2023-04-24T02:43:49;9.90;99.90
42019;DHT22;27703;51.980;5.848;2023-04-24T02:46:15;9.80;99.90
42019;DHT22;27703;51.980;5.848;2023-04-24T02:48:40;9.80;99.90
42019;DHT22;27703;51.980;5.848;2023-04-24T02:51:06;9.80;99.90
42019;DHT22;27703;51.980;5.848;2023-04-24T02:53:32;9.80;99.90
42019;DHT22;27703;51.980;5.848;2023-04-24T02:55:57;9.80;99.90
42019;DHT22;27703;51.980;5.848;2023-04-24T02:58:23;9.80;99.90
42019;DHT22;27703;51.980;5.848;2023-04-24T03:00:52;9.80;99.90
42019;DHT22;27703;51.980;5.848;2023-04-24T03:03:18;9.70;99.90
42019;DHT22;27703;51.980;5.848;2023-04-24T03:05:43;9.70;99.90
42019;DHT22;27703;51.980;5.848;2023-04-24T03:08:09;9.70;99.90
42019;DHT22;27703;51.980;5.848;2023-04-24T03:10:35;9.70;99.90
42019;DHT22;27703;51.980;5.848;2023-04-24T03:13:01;9.70;99.90
42019;DHT22;27703;51.980;5.848;2023-04-24T03:15:26;9.70;99.90
42019;DHT22;27703;51.980;5.848;2023-04-24T03:17:52;9.80;99.90
42019;DHT22;27703;51.980;5.848;2023-04-24T03:20:17;9.80;99.90
42019;DHT22;27703;51.980;5.848;2023-04-24T03:22:43;9.80;99.90
42019;DHT22;27703;51.980;5.848;2023-04-24T03:25:09;9.80;99.90
42019;DHT22;27703;51.980;5.848;2023-04-24T03:27:34;9.80;99.90
42019;DHT22;27703;51.980;5.848;2023-04-24T03:30:00;9.80;99.90
42019;DHT22;27703;51.980;5.848;2023-04-24T03:32:26;9.80;99.90
42019;DHT22;27703;51.980;5.848;2023-04-24T03:34:52;9.80;99.90
42019;DHT22;27703;51.980;5.848;2023-04-24T03:37:17;9.80;99.90
42019;DHT22;27703;51.980;5.848;2023-04-24T03:39:43;9.80;99.90
42019;DHT22;27703;51.980;5.848;2023-04-24T03:42:09;9.80;99.90
42019;DHT22;27703;51.980;5.848;2023-04-24T03:44:35;9.70;99.90
42019;DHT22;27703;51.980;5.848;2023-04-24T03:47:01;9.70;99.90
42019;DHT22;27703;51.980;5.848;2023-04-24T03:49:27;9.70;99.90
42019;DHT22;27703;51.980;5.848;2023-04-24T03:51:52;9.70;99.90
42019;DHT22;27703;51.980;5.848;2023-04-24T03:54:19;9.70;99.90
42019;DHT22;27703;51.980;5.848;2023-04-24T03:56:44;9.70;99.90
42019;DHT22;27703;51.980;5.848;2023-04-24T03:59:10;9.70;99.90
42019;DHT22;27703;51.980;5.848;2023-04-24T04:01:36;9.70;99.90
42019;DHT22;27703;51.980;5.848;2023-04-24T04:04:03;9.70;99.90
42019;DHT22;27703;51.980;5.848;2023-04-24T04:06:29;9.70;99.90
42019;DHT22;27703;51.980;5.848;2023-04-24T04:08:56;9.70;99.90
42019;DHT22;27703;51.980;5.848;2023-04-24T04:11:22;9.60;99.90
42019;DHT22;27703;51.980;5.848;2023-04-24T04:13:48;9.60;99.90
42019;DHT22;27703;51.980;5.848;2023-04-24T04:16:13;9.60;99.90
42019;DHT22;27703;51.980;5.848;2023-04-24T04:18:42;9.60;99.90
42019;DHT22;27703;51.980;5.848;2023-04-24T04:21:07;9.60;99.90
42019;DHT22;27703;51.980;5.848;2023-04-24T04:23:33;9.60;99.90
42019;DHT22;27703;51.980;5.848;2023-04-24T04:25:58;9.60;99.90
42019;DHT22;27703;51.980;5.848;2023-04-24T04:28:24;9.50;99.90
42019;DHT22;27703;51.980;5.848;2023-04-24T04:30:50;9.50;99.90
42019;DHT22;27703;51.980;5.848;2023-04-24T04:33:19;9.50;99.90
42019;DHT22;27703;51.980;5.848;2023-04-24T04:35:45;9.50;99.90
42019;DHT22;27703;51.980;5.848;2023-04-24T04:38:14;9.40;99.90
42019;DHT22;27703;51.980;5.848;2023-04-24T04:40:40;9.40;99.90
42019;DHT22;27703;51.980;5.848;2023-04-24T04:43:06;9.40;99.90
42019;DHT22;27703;51.980;5.848;2023-04-24T04:45:32;9.40;99.90
42019;DHT22;27703;51.980;5.848;2023-04-24T04:47:59;9.40;99.90
42019;DHT22;27703;51.980;5.848;2023-04-24T04:50:26;9.40;99.90
42019;DHT22;27703;51.980;5.848;2023-04-24T04:52:52;9.40;99.90
42019;DHT22;27703;51.980;5.848;2023-04-24T04:55:17;9.40;99.90
42019;DHT22;27703;51.980;5.848;2023-04-24T04:57:45;9.40;99.90
42019;DHT22;27703;51.980;5.848;2023-04-24T05:00:11;9.30;99.90
42019;DHT22;27703;51.980;5.848;2023-04-24T05:02:38;9.30;99.90
42019;DHT22;27703;51.980;5.848;2023-04-24T05:05:04;9.30;99.90
42019;DHT22;27703;51.980;5.848;2023-04-24T05:07:30;9.30;99.90
42019;DHT22;27703;51.980;5.848;2023-04-24T05:09:56;9.40;99.90
42019;DHT22;27703;51.980;5.848;2023-04-24T05:12:21;9.30;99.90
42019;DHT22;27703;51.980;5.848;2023-04-24T05:14:47;9.30;99.90
42019;DHT22;27703;51.980;5.848;2023-04-24T05:17:13;9.30;99.90
42019;DHT22;27703;51.980;5.848;2023-04-24T05:19:38;9.30;99.90
42019;DHT22;27703;51.980;5.848;2023-04-24T05:22:04;9.30;99.90
42019;DHT22;27703;51.980;5.848;2023-04-24T05:24:35;9.40;99.90
42019;DHT22;27703;51.980;5.848;2023-04-24T05:27:01;9.30;99.90
42019;DHT22;27703;51.980;5.848;2023-04-24T05:29:28;9.30;99.90
42019;DHT22;27703;51.980;5.848;2023-04-24T05:31:56;9.40;99.90
42019;DHT22;27703;51.980;5.848;2023-04-24T05:34:21;9.40;99.90
42019;DHT22;27703;51.980;5.848;2023-04-24T05:36:47;9.40;99.90
42019;DHT22;27703;51.980;5.848;2023-04-24T05:39:13;9.40;99.90
42019;DHT22;27703;51.980;5.848;2023-04-24T05:41:39;9.40;99.90
42019;DHT22;27703;51.980;5.848;2023-04-24T05:44:04;9.40;99.90
42019;DHT22;27703;51.980;5.848;2023-04-24T05:46:30;9.50;99.90
42019;DHT22;27703;51.980;5.848;2023-04-24T05:48:56;9.50;99.90
42019;DHT22;27703;51.980;5.848;2023-04-24T05:51:21;9.50;99.90
42019;DHT22;27703;51.980;5.848;2023-04-24T05:53:47;9.50;99.90
42019;DHT22;27703;51.980;5.848;2023-04-24T05:56:12;9.50;99.90
42019;DHT22;27703;51.980;5.848;2023-04-24T05:58:38;9.50;99.90
42019;DHT22;27703;51.980;5.848;2023-04-24T06:01:04;9.50;99.90
42019;DHT22;27703;51.980;5.848;2023-04-24T06:03:31;9.60;99.90
42019;DHT22;27703;51.980;5.848;2023-04-24T06:05:57;9.60;99.90
42019;DHT22;27703;51.980;5.848;2023-04-24T06:08:22;9.60;99.90
42019;DHT22;27703;51.980;5.848;2023-04-24T06:10:48;9.60;99.90
42019;DHT22;27703;51.980;5.848;2023-04-24T06:13:13;9.70;99.90
42019;DHT22;27703;51.980;5.848;2023-04-24T06:15:39;9.60;99.90
42019;DHT22;27703;51.980;5.848;2023-04-24T06:18:04;9.70;99.90
42019;DHT22;27703;51.980;5.848;2023-04-24T06:20:30;9.70;99.90
42019;DHT22;27703;51.980;5.848;2023-04-24T06:22:56;9.70;99.90
42019;DHT22;27703;51.980;5.848;2023-04-24T06:25:21;9.70;99.90
42019;DHT22;27703;51.980;5.848;2023-04-24T06:27:47;9.70;99.90
42019;DHT22;27703;51.980;5.848;2023-04-24T06:30:12;9.80;99.90
42019;DHT22;27703;51.980;5.848;2023-04-24T06:32:39;9.80;99.90
42019;DHT22;27703;51.980;5.848;2023-04-24T06:35:06;9.90;99.90
42019;DHT22;27703;51.980;5.848;2023-04-24T06:37:33;9.90;99.90
42019;DHT22;27703;51.980;5.848;2023-04-24T06:39:59;9.90;99.90
42019;DHT22;27703;51.980;5.848;2023-04-24T06:42:24;9.90;99.90
42019;DHT22;27703;51.980;5.848;2023-04-24T06:44:50;10.00;99.90
42019;DHT22;27703;51.980;5.848;2023-04-24T06:47:15;10.00;99.90
42019;DHT22;27703;51.980;5.848;2023-04-24T06:49:41;10.00;99.90
42019;DHT22;27703;51.980;5.848;2023-04-24T06:52:07;10.00;99.90
42019;DHT22;27703;51.980;5.848;2023-04-24T06:54:33;10.00;99.90
42019;DHT22;27703;51.980;5.848;2023-04-24T06:56:59;10.10;99.90
42019;DHT22;27703;51.980;5.848;2023-04-24T06:59:26;10.10;99.90
42019;DHT22;27703;51.980;5.848;2023-04-24T07:01:52;10.20;99.90
42019;DHT22;27703;51.980;5.848;2023-04-24T07:04:18;10.20;99.90
42019;DHT22;27703;51.980;5.848;2023-04-24T07:06:45;10.20;99.90
42019;DHT22;27703;51.980;5.848;2023-04-24T07:09:11;10.20;99.90
42019;DHT22;27703;51.980;5.848;2023-04-24T07:11:38;10.20;99.90
42019;DHT22;27703;51.980;5.848;2023-04-24T07:14:06;10.10;99.90
42019;DHT22;27703;51.980;5.848;2023-04-24T07:16:31;10.10;99.90
42019;DHT22;27703;51.980;5.848;2023-04-24T07:18:57;10.10;99.90
42019;DHT22;27703;51.980;5.848;2023-04-24T07:21:22;10.00;99.90
42019;DHT22;27703;51.980;5.848;2023-04-24T07:23:48;10.00;99.90
42019;DHT22;27703;51.980;5.848;2023-04-24T07:26:13;9.90;99.90
42019;DHT22;27703;51.980;5.848;2023-04-24T07:28:40;9.90;99.90
42019;DHT22;27703;51.980;5.848;2023-04-24T07:31:06;9.90;99.90
42019;DHT22;27703;51.980;5.848;2023-04-24T07:33:32;9.80;99.90
42019;DHT22;27703;51.980;5.848;2023-04-24T07:35:58;9.80;99.90
42019;DHT22;27703;51.980;5.848;2023-04-24T07:38:23;9.80;99.90
42019;DHT22;27703;51.980;5.848;2023-04-24T07:40:51;9.80;99.90
42019;DHT22;27703;51.980;5.848;2023-04-24T07:43:16;9.80;99.90
42019;DHT22;27703;51.980;5.848;2023-04-24T07:45:42;9.80;99.90
42019;DHT22;27703;51.980;5.848;2023-04-24T07:48:08;9.80;99.90
42019;DHT22;27703;51.980;5.848;2023-04-24T07:50:34;9.80;99.90
42019;DHT22;27703;51.980;5.848;2023-04-24T07:53:01;9.80;99.90
42019;DHT22;27703;51.980;5.848;2023-04-24T07:55:27;9.80;99.90
42019;DHT22;27703;51.980;5.848;2023-04-24T07:57:53;9.80;99.90
42019;DHT22;27703;51.980;5.848;2023-04-24T08:00:18;9.80;99.90
42019;DHT22;27703;51.980;5.848;2023-04-24T08:02:45;9.70;99.90
42019;DHT22;27703;51.980;5.848;2023-04-24T08:05:10;9.70;99.90
42019;DHT22;27703;51.980;5.848;2023-04-24T08:07:36;9.70;99.90
42019;DHT22;27703;51.980;5.848;2023-04-24T08:10:02;9.70;99.90
42019;DHT22;27703;51.980;5.848;2023-04-24T08:12:30;9.60;99.90
42019;DHT22;27703;51.980;5.848;2023-04-24T08:14:56;9.60;99.90
42019;DHT22;27703;51.980;5.848;2023-04-24T08:17:22;9.60;99.90
42019;DHT22;27703;51.980;5.848;2023-04-24T08:19:47;9.60;99.90
42019;DHT22;27703;51.980;5.848;2023-04-24T08:22:14;9.50;99.90
42019;DHT22;27703;51.980;5.848;2023-04-24T08:24:40;9.50;99.90
42019;DHT22;27703;51.980;5.848;2023-04-24T08:27:05;9.50;99.90
42019;DHT22;27703;51.980;5.848;2023-04-24T08:29:31;9.40;99.90
42019;DHT22;27703;51.980;5.848;2023-04-24T08:31:57;9.40;99.90
42019;DHT22;27703;51.980;5.848;2023-04-24T08:34:23;9.40;99.90
42019;DHT22;27703;51.980;5.848;2023-04-24T08:36:48;9.40;99.90
42019;DHT22;27703;51.980;5.848;2023-04-24T08:39:14;9.40;99.90
42019;DHT22;27703;51.980;5.848;2023-04-24T08:41:42;9.40;99.90
42019;DHT22;27703;51.980;5.848;2023-04-24T08:44:09;9.40;99.90
42019;DHT22;27703;51.980;5.848;2023-04-24T08:46:35;9.40;99.90
42019;DHT22;27703;51.980;5.848;2023-04-24T08:49:02;9.40;99.90
42019;DHT22;27703;51.980;5.848;2023-04-24T08:51:29;9.40;99.90
42019;DHT22;27703;51.980;5.848;2023-04-24T08:53:56;9.40;99.90
42019;DHT22;27703;51.980;5.848;2023-04-24T08:56:22;9.40;99.90
42019;DHT22;27703;51.980;5.848;2023-04-24T08:58:50;9.40;99.90
42019;DHT22;27703;51.980;5.848;2023-04-24T09:01:18;9.40;99.90
42019;DHT22;27703;51.980;5.848;2023-04-24T09:03:44;9.40;99.90
42019;DHT22;27703;51.980;5.848;2023-04-24T09:06:11;9.40;99.90
42019;DHT22;27703;51.980;5.848;2023-04-24T09:08:37;9.30;99.90
42019;DHT22;27703;51.980;5.848;2023-04-24T09:11:05;9.40;99.90
42019;DHT22;27703;51.980;5.848;2023-04-24T09:13:30;9.40;99.90
42019;DHT22;27703;51.980;5.848;2023-04-24T09:15:57;9.40;99.90
42019;DHT22;27703;51.980;5.848;2023-04-24T09:18:22;9.40;99.90
42019;DHT22;27703;51.980;5.848;2023-04-24T09:21:01;9.50;99.90
42019;DHT22;27703;51.980;5.848;2023-04-24T09:23:31;9.50;99.90
42019;DHT22;27703;51.980;5.848;2023-04-24T09:25:58;9.50;99.90
42019;DHT22;27703;51.980;5.848;2023-04-24T09:28:30;9.50;99.90
42019;DHT22;27703;51.980;5.848;2023-04-24T09:33:29;9.60;99.90
42019;DHT22;27703;51.980;5.848;2023-04-24T09:35:55;9.60;99.90
42019;DHT22;27703;51.980;5.848;2023-04-24T09:38:31;9.60;99.90
42019;DHT22;27703;51.980;5.848;2023-04-24T09:40:59;9.70;99.90
42019;DHT22;27703;51.980;5.848;2023-04-24T09:43:26;9.70;99.90
42019;DHT22;27703;51.980;5.848;2023-04-24T09:45:56;9.70;99.90
42019;DHT22;27703;51.980;5.848;2023-04-24T09:48:33;9.80;99.90
42019;DHT22;27703;51.980;5.848;2023-04-24T09:51:00;9.80;99.90
42019;DHT22;27703;51.980;5.848;2023-04-24T09:53:27;9.90;99.90
42019;DHT22;27703;51.980;5.848;2023-04-24T09:55:53;9.90;99.90
42019;DHT22;27703;51.980;5.848;2023-04-24T09:58:24;9.90;99.90
42019;DHT22;27703;51.980;5.848;2023-04-24T10:00:50;10.00;99.90
42019;DHT22;27703;51.980;5.848;2023-04-24T10:03:18;9.90;99.90
42019;DHT22;27703;51.980;5.848;2023-04-24T10:05:46;9.90;99.90
42019;DHT22;27703;51.980;5.848;2023-04-24T10:08:12;10.00;99.90
42019;DHT22;27703;51.980;5.848;2023-04-24T10:10:43;10.00;99.90
42019;DHT22;27703;51.980;5.848;2023-04-24T10:13:10;10.10;99.90
42019;DHT22;27703;51.980;5.848;2023-04-24T10:15:36;10.10;99.90
42019;DHT22;27703;51.980;5.848;2023-04-24T10:18:04;10.30;99.90
42019;DHT22;27703;51.980;5.848;2023-04-24T10:20:31;10.40;99.90
42019;DHT22;27703;51.980;5.848;2023-04-24T10:22:59;10.50;99.90
42019;DHT22;27703;51.980;5.848;2023-04-24T10:25:27;10.70;99.90
42019;DHT22;27703;51.980;5.848;2023-04-24T10:27:53;10.90;99.90
42019;DHT22;27703;51.980;5.848;2023-04-24T10:30:23;11.10;99.90
42019;DHT22;27703;51.980;5.848;2023-04-24T10:32:49;11.20;99.90
42019;DHT22;27703;51.980;5.848;2023-04-24T10:35:15;11.30;99.90
42019;DHT22;27703;51.980;5.848;2023-04-24T10:37:46;11.30;99.90
42019;DHT22;27703;51.980;5.848;2023-04-24T10:40:18;11.30;99.90
42019;DHT22;27703;51.980;5.848;2023-04-24T10:42:47;11.40;99.90
42019;DHT22;27703;51.980;5.848;2023-04-24T10:45:18;11.40;99.90
42019;DHT22;27703;51.980;5.848;2023-04-24T10:47:51;11.40;99.90
42019;DHT22;27703;51.980;5.848;2023-04-24T10:50:17;11.40;99.90
42019;DHT22;27703;51.980;5.848;2023-04-24T10:52:49;11.30;99.90
42019;DHT22;27703;51.980;5.848;2023-04-24T10:58:07;11.20;99.90
42019;DHT22;27703;51.980;5.848;2023-04-24T11:00:36;11.10;99.90
42019;DHT22;27703;51.980;5.848;2023-04-24T11:03:24;11.10;99.90
42019;DHT22;27703;51.980;5.848;2023-04-24T11:06:16;11.00;99.90
42019;DHT22;27703;51.980;5.848;2023-04-24T11:09:02;10.90;99.90
42019;DHT22;27703;51.980;5.848;2023-04-24T11:11:29;10.70;99.90
42019;DHT22;27703;51.980;5.848;2023-04-24T11:19:18;10.50;99.90
42019;DHT22;27703;51.980;5.848;2023-04-24T11:27:09;10.80;99.90
42019;DHT22;27703;51.980;5.848;2023-04-24T11:29:41;10.80;99.90
42019;DHT22;27703;51.980;5.848;2023-04-24T11:32:25;10.90;99.90
42019;DHT22;27703;51.980;5.848;2023-04-24T11:34:57;10.90;99.90
42019;DHT22;27703;51.980;5.848;2023-04-24T11:37:23;10.90;99.90
42019;DHT22;27703;51.980;5.848;2023-04-24T11:39:57;11.00;99.90
42019;DHT22;27703;51.980;5.848;2023-04-24T11:42:23;11.10;99.90
42019;DHT22;27703;51.980;5.848;2023-04-24T11:44:52;11.20;99.90
42019;DHT22;27703;51.980;5.848;2023-04-24T11:47:18;11.30;99.90
42019;DHT22;27703;51.980;5.848;2023-04-24T11:49:43;11.40;99.90
42019;DHT22;27703;51.980;5.848;2023-04-24T11:52:09;11.40;99.90
42019;DHT22;27703;51.980;5.848;2023-04-24T11:54:36;11.30;99.90
42019;DHT22;27703;51.980;5.848;2023-04-24T11:57:04;11.20;99.90
42019;DHT22;27703;51.980;5.848;2023-04-24T11:59:35;11.00;99.90
42019;DHT22;27703;51.980;5.848;2023-04-24T12:02:02;10.90;99.90
42019;DHT22;27703;51.980;5.848;2023-04-24T12:04:38;10.70;99.90
42019;DHT22;27703;51.980;5.848;2023-04-24T12:07:04;10.60;99.90
42019;DHT22;27703;51.980;5.848;2023-04-24T12:09:48;10.60;99.90
42019;DHT22;27703;51.980;5.848;2023-04-24T12:12:16;10.50;99.90
42019;DHT22;27703;51.980;5.848;2023-04-24T12:14:49;10.30;99.90
42019;DHT22;27703;51.980;5.848;2023-04-24T12:17:16;10.30;99.90
42019;DHT22;27703;51.980;5.848;2023-04-24T12:19:46;10.40;99.90
42019;DHT22;27703;51.980;5.848;2023-04-24T12:22:12;10.40;99.90
42019;DHT22;27703;51.980;5.848;2023-04-24T12:24:56;10.50;99.90
42019;DHT22;27703;51.980;5.848;2023-04-24T12:27:22;10.50;99.90
42019;DHT22;27703;51.980;5.848;2023-04-24T12:29:56;10.50;99.90
42019;DHT22;27703;51.980;5.848;2023-04-24T12:32:22;10.60;99.90
42019;DHT22;27703;51.980;5.848;2023-04-24T12:34:48;10.60;99.90
42019;DHT22;27703;51.980;5.848;2023-04-24T12:37:14;10.80;99.90
42019;DHT22;27703;51.980;5.848;2023-04-24T12:39:57;11.00;99.90
42019;DHT22;27703;51.980;5.848;2023-04-24T12:42:27;11.10;99.90
42019;DHT22;27703;51.980;5.848;2023-04-24T12:45:00;11.20;99.90
42019;DHT22;27703;51.980;5.848;2023-04-24T12:47:27;11.20;99.90
42019;DHT22;27703;51.980;5.848;2023-04-24T12:49:52;11.10;99.90
42019;DHT22;27703;51.980;5.848;2023-04-24T12:52:22;11.00;99.90
42019;DHT22;27703;51.980;5.848;2023-04-24T12:54:49;11.10;99.90
42019;DHT22;27703;51.980;5.848;2023-04-24T12:57:16;11.00;99.90
42019;DHT22;27703;51.980;5.848;2023-04-24T12:59:41;11.00;99.90
42019;DHT22;27703;51.980;5.848;2023-04-24T13:02:07;11.00;99.90
42019;DHT22;27703;51.980;5.848;2023-04-24T13:04:34;11.00;99.90
42019;DHT22;27703;51.980;5.848;2023-04-24T13:06:59;11.00;99.90
42019;DHT22;27703;51.980;5.848;2023-04-24T13:09:25;11.00;99.90
42019;DHT22;27703;51.980;5.848;2023-04-24T13:11:50;11.10;99.90
42019;DHT22;27703;51.980;5.848;2023-04-24T13:14:16;11.10;99.90
42019;DHT22;27703;51.980;5.848;2023-04-24T13:16:42;11.10;99.90
42019;DHT22;27703;51.980;5.848;2023-04-24T13:19:07;11.20;99.90
42019;DHT22;27703;51.980;5.848;2023-04-24T13:21:33;11.20;99.90
42019;DHT22;27703;51.980;5.848;2023-04-24T13:23:58;11.20;99.90
42019;DHT22;27703;51.980;5.848;2023-04-24T13:26:24;11.10;99.90
42019;DHT22;27703;51.980;5.848;2023-04-24T13:28:50;11.10;99.90
42019;DHT22;27703;51.980;5.848;2023-04-24T13:31:15;11.00;99.90
42019;DHT22;27703;51.980;5.848;2023-04-24T13:33:41;10.90;99.90
42019;DHT22;27703;51.980;5.848;2023-04-24T13:36:07;10.90;99.90
42019;DHT22;27703;51.980;5.848;2023-04-24T13:38:32;10.90;99.90
42019;DHT22;27703;51.980;5.848;2023-04-24T13:40:58;10.90;99.90
42019;DHT22;27703;51.980;5.848;2023-04-24T13:43:24;11.00;99.90
42019;DHT22;27703;51.980;5.848;2023-04-24T13:45:49;11.00;99.90
42019;DHT22;27703;51.980;5.848;2023-04-24T13:48:15;11.10;99.90
42019;DHT22;27703;51.980;5.848;2023-04-24T13:50:41;11.10;99.90
42019;DHT22;27703;51.980;5.848;2023-04-24T13:53:07;11.20;99.90
42019;DHT22;27703;51.980;5.848;2023-04-24T13:55:34;11.20;99.90
42019;DHT22;27703;51.980;5.848;2023-04-24T13:57:59;11.20;99.90
42019;DHT22;27703;51.980;5.848;2023-04-24T14:00:26;11.30;99.90
42019;DHT22;27703;51.980;5.848;2023-04-24T14:02:52;11.50;99.90
42019;DHT22;27703;51.980;5.848;2023-04-24T14:05:18;11.60;99.90
42019;DHT22;27703;51.980;5.848;2023-04-24T14:07:43;11.70;99.90
42019;DHT22;27703;51.980;5.848;2023-04-24T14:10:09;11.80;99.90
42019;DHT22;27703;51.980;5.848;2023-04-24T14:12:35;12.00;99.90
42019;DHT22;27703;51.980;5.848;2023-04-24T14:15:01;12.00;99.90
42019;DHT22;27703;51.980;5.848;2023-04-24T14:17:27;12.00;99.90
42019;DHT22;27703;51.980;5.848;2023-04-24T14:19:52;12.00;99.90
42019;DHT22;27703;51.980;5.848;2023-04-24T14:22:21;11.90;99.90
42019;DHT22;27703;51.980;5.848;2023-04-24T14:24:46;11.90;99.90
42019;DHT22;27703;51.980;5.848;2023-04-24T14:27:12;11.90;99.90
42019;DHT22;27703;51.980;5.848;2023-04-24T14:29:38;12.20;99.90
42019;DHT22;27703;51.980;5.848;2023-04-24T14:32:03;12.50;99.90
42019;DHT22;27703;51.980;5.848;2023-04-24T14:34:29;12.90;99.90
42019;DHT22;27703;51.980;5.848;2023-04-24T14:36:55;13.00;99.90
42019;DHT22;27703;51.980;5.848;2023-04-24T14:39:21;13.10;99.90
42019;DHT22;27703;51.980;5.848;2023-04-24T14:41:46;13.20;99.90
42019;DHT22;27703;51.980;5.848;2023-04-24T14:44:12;13.00;99.90
42019;DHT22;27703;51.980;5.848;2023-04-24T14:46:37;12.70;99.90
42019;DHT22;27703;51.980;5.848;2023-04-24T14:49:03;12.50;99.90
42019;DHT22;27703;51.980;5.848;2023-04-24T14:51:28;12.40;99.90
42019;DHT22;27703;51.980;5.848;2023-04-24T14:53:54;12.50;99.90
42019;DHT22;27703;51.980;5.848;2023-04-24T14:56:21;12.50;99.90
42019;DHT22;27703;51.980;5.848;2023-04-24T14:58:46;12.40;99.90
42019;DHT22;27703;51.980;5.848;2023-04-24T15:01:12;12.40;99.90
42019;DHT22;27703;51.980;5.848;2023-04-24T15:03:38;12.20;99.90
42019;DHT22;27703;51.980;5.848;2023-04-24T15:06:03;12.10;99.90
42019;DHT22;27703;51.980;5.848;2023-04-24T15:08:29;12.00;99.90
42019;DHT22;27703;51.980;5.848;2023-04-24T15:10:55;11.90;99.90
42019;DHT22;27703;51.980;5.848;2023-04-24T15:13:20;11.90;99.90
42019;DHT22;27703;51.980;5.848;2023-04-24T15:15:46;11.80;99.90
42019;DHT22;27703;51.980;5.848;2023-04-24T15:18:12;11.70;99.90
42019;DHT22;27703;51.980;5.848;2023-04-24T15:20:38;11.60;99.90
42019;DHT22;27703;51.980;5.848;2023-04-24T15:23:05;11.60;99.90
42019;DHT22;27703;51.980;5.848;2023-04-24T15:25:31;11.50;99.90
42019;DHT22;27703;51.980;5.848;2023-04-24T15:27:57;11.50;99.90
42019;DHT22;27703;51.980;5.848;2023-04-24T15:30:24;11.40;99.90
42019;DHT22;27703;51.980;5.848;2023-04-24T15:32:49;11.40;99.90
42019;DHT22;27703;51.980;5.848;2023-04-24T15:35:15;11.40;99.90
42019;DHT22;27703;51.980;5.848;2023-04-24T15:37:41;11.40;99.90
42019;DHT22;27703;51.980;5.848;2023-04-24T15:40:08;11.40;99.90
42019;DHT22;27703;51.980;5.848;2023-04-24T15:42:34;11.30;99.90
42019;DHT22;27703;51.980;5.848;2023-04-24T15:44:59;11.50;99.90
42019;DHT22;27703;51.980;5.848;2023-04-24T15:47:25;11.70;99.90
42019;DHT22;27703;51.980;5.848;2023-04-24T15:49:52;11.80;99.90